sensor_id;sensor_type;location;lat;lon;timestamp;P1;durP1;ratioP1;P2;durP2;ratioP2
73841;SDS011;62184;52.006;5.924;2023-07-29T00:01:23;20.88;;;16.00;;
73841;SDS011;62184;52.006;5.924;2023-07-29T00:03:49;20.75;;;16.38;;
73841;SDS011;62184;52.006;5.924;2023-07-29T00:06:15;17.13;;;14.18;;
73841;SDS011;62184;52.006;5.924;2023-07-29T00:08:45;16.52;;;14.20;;
73841;SDS011;62184;52.006;5.924;2023-07-29T00:11:11;14.43;;;13.02;;
73841;SDS011;62184;52.006;5.924;2023-07-29T00:13:38;14.80;;;13.20;;
73841;SDS011;62184;52.006;5.924;2023-07-29T00:16:04;13.57;;;12.18;;
73841;SDS011;62184;52.006;5.924;2023-07-29T00:18:31;12.68;;;11.38;;
73841;SDS011;62184;52.006;5.924;2023-07-29T00:20:57;12.23;;;11.00;;
73841;SDS011;62184;52.006;5.924;2023-07-29T00:23:24;11.73;;;10.63;;
73841;SDS011;62184;52.006;5.924;2023-07-29T00:25:53;11.45;;;10.45;;
73841;SDS011;62184;52.006;5.924;2023-07-29T00:28:19;11.60;;;10.50;;
73841;SDS011;62184;52.006;5.924;2023-07-29T00:30:46;10.70;;;9.70;;
73841;SDS011;62184;52.006;5.924;2023-07-29T00:33:12;10.40;;;9.40;;
73841;SDS011;62184;52.006;5.924;2023-07-29T00:35:39;10.45;;;9.55;;
73841;SDS011;62184;52.006;5.924;2023-07-29T00:38:05;10.40;;;9.50;;
73841;SDS011;62184;52.006;5.924;2023-07-29T00:40:32;10.55;;;9.65;;
73841;SDS011;62184;52.006;5.924;2023-07-29T00:43:04;11.63;;;10.55;;
73841;SDS011;62184;52.006;5.924;2023-07-29T00:45:31;11.73;;;10.68;;
73841;SDS011;62184;52.006;5.924;2023-07-29T00:47:58;11.93;;;10.88;;
73841;SDS011;62184;52.006;5.924;2023-07-29T00:50:26;11.53;;;10.53;;
73841;SDS011;62184;52.006;5.924;2023-07-29T00:52:54;11.90;;;10.80;;
73841;SDS011;62184;52.006;5.924;2023-07-29T00:55:21;11.88;;;10.77;;
73841;SDS011;62184;52.006;5.924;2023-07-29T00:57:48;12.07;;;10.90;;
73841;SDS011;62184;52.006;5.924;2023-07-29T01:00:19;11.40;;;10.40;;
73841;SDS011;62184;52.006;5.924;2023-07-29T01:02:46;11.17;;;10.17;;
73841;SDS011;62184;52.006;5.924;2023-07-29T01:05:13;10.45;;;9.38;;
73841;SDS011;62184;52.006;5.924;2023-07-29T01:07:44;10.60;;;9.70;;
73841;SDS011;62184;52.006;5.924;2023-07-29T01:10:24;10.80;;;9.82;;
73841;SDS011;62184;52.006;5.924;2023-07-29T01:13:04;10.68;;;9.77;;
73841;SDS011;62184;52.006;5.924;2023-07-29T01:15:46;9.90;;;9.10;;
73841;SDS011;62184;52.006;5.924;2023-07-29T01:18:22;9.80;;;8.90;;
73841;SDS011;62184;52.006;5.924;2023-07-29T01:20:53;9.85;;;8.85;;
73841;SDS011;62184;52.006;5.924;2023-07-29T01:23:27;9.60;;;8.80;;
73841;SDS011;62184;52.006;5.924;2023-07-29T01:25:56;9.40;;;8.60;;
73841;SDS011;62184;52.006;5.924;2023-07-29T01:28:22;9.60;;;8.80;;
73841;SDS011;62184;52.006;5.924;2023-07-29T01:30:51;9.60;;;8.70;;
73841;SDS011;62184;52.006;5.924;2023-07-29T01:33:27;9.63;;;8.80;;
73841;SDS011;62184;52.006;5.924;2023-07-29T01:36:02;9.98;;;9.07;;
73841;SDS011;62184;52.006;5.924;2023-07-29T01:38:41;10.20;;;9.20;;
73841;SDS011;62184;52.006;5.924;2023-07-29T01:41:09;9.85;;;8.95;;
73841;SDS011;62184;52.006;5.924;2023-07-29T01:43:36;9.97;;;9.07;;
73841;SDS011;62184;52.006;5.924;2023-07-29T01:46:05;10.43;;;9.53;;
73841;SDS011;62184;52.006;5.924;2023-07-29T01:48:31;9.80;;;9.00;;
73841;SDS011;62184;52.006;5.924;2023-07-29T01:50:58;10.27;;;9.20;;
73841;SDS011;62184;52.006;5.924;2023-07-29T01:53:24;10.20;;;9.30;;
73841;SDS011;62184;52.006;5.924;2023-07-29T01:55:53;10.40;;;9.50;;
73841;SDS011;62184;52.006;5.924;2023-07-29T01:58:20;11.88;;;10.68;;
73841;SDS011;62184;52.006;5.924;2023-07-29T02:00:46;11.33;;;10.10;;
73841;SDS011;62184;52.006;5.924;2023-07-29T02:03:13;13.65;;;12.35;;
73841;SDS011;62184;52.006;5.924;2023-07-29T02:05:39;13.00;;;11.70;;
73841;SDS011;62184;52.006;5.924;2023-07-29T02:08:06;12.63;;;11.43;;
73841;SDS011;62184;52.006;5.924;2023-07-29T02:10:32;14.43;;;13.00;;
73841;SDS011;62184;52.006;5.924;2023-07-29T02:13:01;14.02;;;12.63;;
73841;SDS011;62184;52.006;5.924;2023-07-29T02:15:28;14.32;;;12.93;;
73841;SDS011;62184;52.006;5.924;2023-07-29T02:17:55;15.77;;;14.18;;
73841;SDS011;62184;52.006;5.924;2023-07-29T02:20:21;15.80;;;14.18;;
73841;SDS011;62184;52.006;5.924;2023-07-29T02:22:48;15.93;;;14.20;;
73841;SDS011;62184;52.006;5.924;2023-07-29T02:25:14;16.58;;;14.88;;
73841;SDS011;62184;52.006;5.924;2023-07-29T02:27:41;19.13;;;16.42;;
73841;SDS011;62184;52.006;5.924;2023-07-29T02:30:10;18.23;;;16.33;;
73841;SDS011;62184;52.006;5.924;2023-07-29T02:32:37;20.33;;;17.35;;
73841;SDS011;62184;52.006;5.924;2023-07-29T02:35:04;19.90;;;17.63;;
73841;SDS011;62184;52.006;5.924;2023-07-29T02:37:32;19.17;;;17.17;;
73841;SDS011;62184;52.006;5.924;2023-07-29T02:39:59;20.33;;;18.13;;
73841;SDS011;62184;52.006;5.924;2023-07-29T02:42:25;22.05;;;18.63;;
73841;SDS011;62184;52.006;5.924;2023-07-29T02:44:52;20.13;;;17.67;;
73841;SDS011;62184;52.006;5.924;2023-07-29T02:47:21;20.20;;;18.00;;
73841;SDS011;62184;52.006;5.924;2023-07-29T02:49:47;22.35;;;18.50;;
73841;SDS011;62184;52.006;5.924;2023-07-29T02:52:14;22.20;;;18.63;;
73841;SDS011;62184;52.006;5.924;2023-07-29T02:54:40;21.40;;;18.03;;
73841;SDS011;62184;52.006;5.924;2023-07-29T02:57:07;20.30;;;17.50;;
73841;SDS011;62184;52.006;5.924;2023-07-29T02:59:33;19.33;;;17.30;;
73841;SDS011;62184;52.006;5.924;2023-07-29T03:02:00;19.17;;;17.08;;
73841;SDS011;62184;52.006;5.924;2023-07-29T03:04:29;18.55;;;16.42;;
73841;SDS011;62184;52.006;5.924;2023-07-29T03:06:55;19.42;;;16.80;;
73841;SDS011;62184;52.006;5.924;2023-07-29T03:09:21;18.20;;;16.30;;
73841;SDS011;62184;52.006;5.924;2023-07-29T03:11:48;18.87;;;16.43;;
73841;SDS011;62184;52.006;5.924;2023-07-29T03:14:14;18.50;;;16.60;;
73841;SDS011;62184;52.006;5.924;2023-07-29T03:16:41;18.52;;;16.38;;
73841;SDS011;62184;52.006;5.924;2023-07-29T03:19:07;20.02;;;16.85;;
73841;SDS011;62184;52.006;5.924;2023-07-29T03:21:36;19.58;;;16.70;;
73841;SDS011;62184;52.006;5.924;2023-07-29T03:24:03;18.70;;;16.70;;
73841;SDS011;62184;52.006;5.924;2023-07-29T03:26:30;19.17;;;16.73;;
73841;SDS011;62184;52.006;5.924;2023-07-29T03:28:56;20.02;;;17.33;;
73841;SDS011;62184;52.006;5.924;2023-07-29T03:31:22;19.75;;;16.58;;
73841;SDS011;62184;52.006;5.924;2023-07-29T03:33:49;18.65;;;16.40;;
73841;SDS011;62184;52.006;5.924;2023-07-29T03:36:15;20.05;;;16.70;;
73841;SDS011;62184;52.006;5.924;2023-07-29T03:38:44;20.50;;;16.90;;
73841;SDS011;62184;52.006;5.924;2023-07-29T03:41:11;19.13;;;16.67;;
73841;SDS011;62184;52.006;5.924;2023-07-29T03:43:38;19.30;;;16.38;;
73841;SDS011;62184;52.006;5.924;2023-07-29T03:46:04;17.90;;;16.00;;
73841;SDS011;62184;52.006;5.924;2023-07-29T03:48:30;17.80;;;15.98;;
73841;SDS011;62184;52.006;5.924;2023-07-29T03:50:57;17.42;;;15.63;;
73841;SDS011;62184;52.006;5.924;2023-07-29T03:53:23;17.10;;;15.30;;
73841;SDS011;62184;52.006;5.924;2023-07-29T03:55:52;16.92;;;15.23;;
73841;SDS011;62184;52.006;5.924;2023-07-29T03:58:19;16.33;;;14.73;;
73841;SDS011;62184;52.006;5.924;2023-07-29T04:00:45;16.13;;;14.47;;
73841;SDS011;62184;52.006;5.924;2023-07-29T04:03:12;15.63;;;13.98;;
73841;SDS011;62184;52.006;5.924;2023-07-29T04:05:38;16.48;;;14.50;;
73841;SDS011;62184;52.006;5.924;2023-07-29T04:08:05;16.00;;;14.30;;
73841;SDS011;62184;52.006;5.924;2023-07-29T04:10:32;15.48;;;13.88;;
73841;SDS011;62184;52.006;5.924;2023-07-29T04:13:01;14.50;;;13.02;;
73841;SDS011;62184;52.006;5.924;2023-07-29T04:15:27;14.85;;;13.25;;
73841;SDS011;62184;52.006;5.924;2023-07-29T04:17:54;14.90;;;13.32;;
73841;SDS011;62184;52.006;5.924;2023-07-29T04:20:20;15.65;;;14.07;;
73841;SDS011;62184;52.006;5.924;2023-07-29T04:22:46;15.10;;;13.50;;
73841;SDS011;62184;52.006;5.924;2023-07-29T04:25:13;14.43;;;12.93;;
73841;SDS011;62184;52.006;5.924;2023-07-29T04:27:40;14.65;;;13.25;;
73841;SDS011;62184;52.006;5.924;2023-07-29T04:30:09;14.63;;;13.13;;
73841;SDS011;62184;52.006;5.924;2023-07-29T04:32:36;14.77;;;13.27;;
73841;SDS011;62184;52.006;5.924;2023-07-29T04:35:03;14.30;;;12.90;;
73841;SDS011;62184;52.006;5.924;2023-07-29T04:37:31;13.57;;;12.30;;
73841;SDS011;62184;52.006;5.924;2023-07-29T04:39:57;13.97;;;12.67;;
73841;SDS011;62184;52.006;5.924;2023-07-29T04:42:24;13.27;;;11.88;;
73841;SDS011;62184;52.006;5.924;2023-07-29T04:44:50;12.48;;;11.38;;
73841;SDS011;62184;52.006;5.924;2023-07-29T04:47:19;12.18;;;11.10;;
73841;SDS011;62184;52.006;5.924;2023-07-29T04:49:46;12.52;;;11.32;;
73841;SDS011;62184;52.006;5.924;2023-07-29T04:52:13;12.23;;;11.02;;
73841;SDS011;62184;52.006;5.924;2023-07-29T04:54:39;12.23;;;11.00;;
73841;SDS011;62184;52.006;5.924;2023-07-29T04:57:06;11.63;;;10.52;;
73841;SDS011;62184;52.006;5.924;2023-07-29T04:59:33;12.33;;;11.13;;
73841;SDS011;62184;52.006;5.924;2023-07-29T05:01:59;12.00;;;10.80;;
73841;SDS011;62184;52.006;5.924;2023-07-29T05:04:28;12.00;;;10.90;;
73841;SDS011;62184;52.006;5.924;2023-07-29T05:06:54;12.60;;;11.40;;
73841;SDS011;62184;52.006;5.924;2023-07-29T05:09:21;11.70;;;10.60;;
73841;SDS011;62184;52.006;5.924;2023-07-29T05:11:47;11.57;;;10.57;;
73841;SDS011;62184;52.006;5.924;2023-07-29T05:14:14;11.30;;;10.30;;
73841;SDS011;62184;52.006;5.924;2023-07-29T05:16:43;11.10;;;10.00;;
73841;SDS011;62184;52.006;5.924;2023-07-29T05:19:10;11.30;;;10.20;;
73841;SDS011;62184;52.006;5.924;2023-07-29T05:21:39;11.43;;;10.32;;
73841;SDS011;62184;52.006;5.924;2023-07-29T05:24:06;10.95;;;9.95;;
73841;SDS011;62184;52.006;5.924;2023-07-29T05:26:32;10.95;;;9.95;;
73841;SDS011;62184;52.006;5.924;2023-07-29T05:28:59;11.23;;;10.13;;
73841;SDS011;62184;52.006;5.924;2023-07-29T05:31:25;10.32;;;9.43;;
73841;SDS011;62184;52.006;5.924;2023-07-29T05:33:52;10.55;;;9.55;;
73841;SDS011;62184;52.006;5.924;2023-07-29T05:36:18;10.85;;;9.70;;
73841;SDS011;62184;52.006;5.924;2023-07-29T05:38:47;10.25;;;9.35;;
73841;SDS011;62184;52.006;5.924;2023-07-29T05:41:14;10.15;;;9.15;;
73841;SDS011;62184;52.006;5.924;2023-07-29T05:43:40;10.60;;;9.50;;
73841;SDS011;62184;52.006;5.924;2023-07-29T05:46:06;10.80;;;9.80;;
73841;SDS011;62184;52.006;5.924;2023-07-29T05:48:33;10.40;;;9.40;;
73841;SDS011;62184;52.006;5.924;2023-07-29T05:50:59;10.25;;;9.25;;
73841;SDS011;62184;52.006;5.924;2023-07-29T05:53:26;10.15;;;9.20;;
73841;SDS011;62184;52.006;5.924;2023-07-29T05:55:55;10.82;;;9.80;;
73841;SDS011;62184;52.006;5.924;2023-07-29T05:58:21;11.10;;;10.10;;
73841;SDS011;62184;52.006;5.924;2023-07-29T06:00:48;10.25;;;9.25;;
73841;SDS011;62184;52.006;5.924;2023-07-29T06:03:14;10.07;;;9.07;;
73841;SDS011;62184;52.006;5.924;2023-07-29T06:05:41;10.10;;;9.10;;
73841;SDS011;62184;52.006;5.924;2023-07-29T06:08:07;10.17;;;9.17;;
73841;SDS011;62184;52.006;5.924;2023-07-29T06:10:34;10.15;;;9.15;;
73841;SDS011;62184;52.006;5.924;2023-07-29T06:13:03;10.60;;;9.60;;
73841;SDS011;62184;52.006;5.924;2023-07-29T06:15:29;10.02;;;9.02;;
73841;SDS011;62184;52.006;5.924;2023-07-29T06:17:56;10.38;;;9.18;;
73841;SDS011;62184;52.006;5.924;2023-07-29T06:20:22;11.13;;;9.63;;
73841;SDS011;62184;52.006;5.924;2023-07-29T06:22:49;11.35;;;9.75;;
73841;SDS011;62184;52.006;5.924;2023-07-29T06:25:15;10.82;;;9.80;;
73841;SDS011;62184;52.006;5.924;2023-07-29T06:27:42;10.70;;;9.60;;
73841;SDS011;62184;52.006;5.924;2023-07-29T06:30:11;10.70;;;9.60;;
73841;SDS011;62184;52.006;5.924;2023-07-29T06:32:38;11.00;;;9.90;;
73841;SDS011;62184;52.006;5.924;2023-07-29T06:35:04;11.43;;;10.27;;
73841;SDS011;62184;52.006;5.924;2023-07-29T06:37:32;11.75;;;10.48;;
73841;SDS011;62184;52.006;5.924;2023-07-29T06:39:58;11.17;;;10.00;;
73841;SDS011;62184;52.006;5.924;2023-07-29T06:42:25;10.97;;;9.87;;
73841;SDS011;62184;52.006;5.924;2023-07-29T06:44:51;11.40;;;10.30;;
73841;SDS011;62184;52.006;5.924;2023-07-29T06:47:20;11.50;;;10.40;;
73841;SDS011;62184;52.006;5.924;2023-07-29T06:49:47;11.88;;;10.52;;
73841;SDS011;62184;52.006;5.924;2023-07-29T06:52:13;11.98;;;10.88;;
73841;SDS011;62184;52.006;5.924;2023-07-29T06:54:40;12.00;;;10.80;;
73841;SDS011;62184;52.006;5.924;2023-07-29T06:57:06;12.20;;;9.97;;
73841;SDS011;62184;52.006;5.924;2023-07-29T06:59:33;11.30;;;10.07;;
73841;SDS011;62184;52.006;5.924;2023-07-29T07:01:59;12.15;;;10.85;;
73841;SDS011;62184;52.006;5.924;2023-07-29T07:04:28;11.85;;;10.30;;
73841;SDS011;62184;52.006;5.924;2023-07-29T07:06:55;11.95;;;10.75;;
73841;SDS011;62184;52.006;5.924;2023-07-29T07:09:21;11.45;;;10.35;;
73841;SDS011;62184;52.006;5.924;2023-07-29T07:11:48;12.20;;;11.00;;
73841;SDS011;62184;52.006;5.924;2023-07-29T07:14:14;11.37;;;10.27;;
73841;SDS011;62184;52.006;5.924;2023-07-29T07:16:40;11.85;;;10.75;;
73841;SDS011;62184;52.006;5.924;2023-07-29T07:19:07;12.20;;;11.07;;
73841;SDS011;62184;52.006;5.924;2023-07-29T07:21:36;12.45;;;11.20;;
73841;SDS011;62184;52.006;5.924;2023-07-29T07:24:02;12.40;;;11.20;;
73841;SDS011;62184;52.006;5.924;2023-07-29T07:26:29;12.27;;;11.07;;
73841;SDS011;62184;52.006;5.924;2023-07-29T07:28:55;11.90;;;10.70;;
73841;SDS011;62184;52.006;5.924;2023-07-29T07:31:22;11.90;;;10.80;;
73841;SDS011;62184;52.006;5.924;2023-07-29T07:33:48;12.50;;;11.30;;
73841;SDS011;62184;52.006;5.924;2023-07-29T07:36:15;12.80;;;11.60;;
73841;SDS011;62184;52.006;5.924;2023-07-29T07:38:44;12.55;;;11.32;;
73841;SDS011;62184;52.006;5.924;2023-07-29T07:41:10;12.60;;;11.40;;
73841;SDS011;62184;52.006;5.924;2023-07-29T07:43:37;12.65;;;11.40;;
73841;SDS011;62184;52.006;5.924;2023-07-29T07:46:04;13.30;;;11.97;;
73841;SDS011;62184;52.006;5.924;2023-07-29T07:48:31;12.40;;;11.30;;
73841;SDS011;62184;52.006;5.924;2023-07-29T07:50:57;12.95;;;11.68;;
73841;SDS011;62184;52.006;5.924;2023-07-29T07:53:24;13.50;;;11.68;;
73841;SDS011;62184;52.006;5.924;2023-07-29T07:55:53;13.15;;;11.90;;
73841;SDS011;62184;52.006;5.924;2023-07-29T07:58:19;13.23;;;12.02;;
73841;SDS011;62184;52.006;5.924;2023-07-29T08:00:46;13.18;;;11.88;;
73841;SDS011;62184;52.006;5.924;2023-07-29T08:03:12;12.98;;;11.68;;
73841;SDS011;62184;52.006;5.924;2023-07-29T08:05:39;12.95;;;11.75;;
73841;SDS011;62184;52.006;5.924;2023-07-29T08:08:05;12.40;;;11.30;;
73841;SDS011;62184;52.006;5.924;2023-07-29T08:10:32;12.40;;;11.30;;
73841;SDS011;62184;52.006;5.924;2023-07-29T08:13:01;12.00;;;10.90;;
73841;SDS011;62184;52.006;5.924;2023-07-29T08:15:27;12.20;;;11.10;;
73841;SDS011;62184;52.006;5.924;2023-07-29T08:17:54;12.57;;;11.45;;
73841;SDS011;62184;52.006;5.924;2023-07-29T08:20:20;13.00;;;11.68;;
73841;SDS011;62184;52.006;5.924;2023-07-29T08:22:47;12.52;;;11.43;;
73841;SDS011;62184;52.006;5.924;2023-07-29T08:25:13;12.30;;;11.10;;
73841;SDS011;62184;52.006;5.924;2023-07-29T08:27:40;12.20;;;11.10;;
73841;SDS011;62184;52.006;5.924;2023-07-29T08:30:09;12.30;;;11.20;;
73841;SDS011;62184;52.006;5.924;2023-07-29T08:32:36;11.48;;;10.48;;
73841;SDS011;62184;52.006;5.924;2023-07-29T08:35:03;12.20;;;11.00;;
73841;SDS011;62184;52.006;5.924;2023-07-29T08:37:30;12.53;;;11.43;;
73841;SDS011;62184;52.006;5.924;2023-07-29T08:39:57;12.15;;;11.05;;
73841;SDS011;62184;52.006;5.924;2023-07-29T08:42:23;11.73;;;10.63;;
73841;SDS011;62184;52.006;5.924;2023-07-29T08:44:56;11.60;;;10.50;;
73841;SDS011;62184;52.006;5.924;2023-07-29T08:47:35;11.50;;;10.50;;
73841;SDS011;62184;52.006;5.924;2023-07-29T08:50:01;11.43;;;10.43;;
73841;SDS011;62184;52.006;5.924;2023-07-29T08:52:30;11.32;;;10.32;;
73841;SDS011;62184;52.006;5.924;2023-07-29T08:54:58;11.50;;;10.50;;
73841;SDS011;62184;52.006;5.924;2023-07-29T08:57:25;11.68;;;10.68;;
73841;SDS011;62184;52.006;5.924;2023-07-29T08:59:52;10.97;;;10.07;;
73841;SDS011;62184;52.006;5.924;2023-07-29T09:02:24;10.55;;;9.60;;
73841;SDS011;62184;52.006;5.924;2023-07-29T09:04:51;10.40;;;9.50;;
73841;SDS011;62184;52.006;5.924;2023-07-29T09:07:17;9.80;;;8.98;;
73841;SDS011;62184;52.006;5.924;2023-07-29T09:09:45;9.95;;;9.15;;
73841;SDS011;62184;52.006;5.924;2023-07-29T09:12:11;9.90;;;9.10;;
73841;SDS011;62184;52.006;5.924;2023-07-29T09:14:38;9.50;;;8.70;;
73841;SDS011;62184;52.006;5.924;2023-07-29T09:17:06;9.63;;;8.80;;
73841;SDS011;62184;52.006;5.924;2023-07-29T09:19:37;10.10;;;9.20;;
73841;SDS011;62184;52.006;5.924;2023-07-29T09:22:03;9.32;;;8.52;;
73841;SDS011;62184;52.006;5.924;2023-07-29T09:24:30;9.68;;;8.88;;
73841;SDS011;62184;52.006;5.924;2023-07-29T09:26:57;9.73;;;8.93;;
73841;SDS011;62184;52.006;5.924;2023-07-29T09:29:23;9.50;;;8.60;;
73841;SDS011;62184;52.006;5.924;2023-07-29T09:31:54;9.90;;;9.07;;
73841;SDS011;62184;52.006;5.924;2023-07-29T09:34:47;10.03;;;9.13;;
73841;SDS011;62184;52.006;5.924;2023-07-29T09:37:16;9.30;;;8.50;;
73841;SDS011;62184;52.006;5.924;2023-07-29T09:39:46;9.57;;;8.68;;
73841;SDS011;62184;52.006;5.924;2023-07-29T09:42:17;9.80;;;8.90;;
73841;SDS011;62184;52.006;5.924;2023-07-29T09:44:44;9.00;;;8.20;;
73841;SDS011;62184;52.006;5.924;2023-07-29T09:47:18;9.50;;;8.60;;
73841;SDS011;62184;52.006;5.924;2023-07-29T09:49:49;9.55;;;8.50;;
73841;SDS011;62184;52.006;5.924;2023-07-29T09:52:16;8.88;;;8.07;;
73841;SDS011;62184;52.006;5.924;2023-07-29T09:54:44;9.17;;;8.47;;
73841;SDS011;62184;52.006;5.924;2023-07-29T09:57:12;8.77;;;8.00;;
73841;SDS011;62184;52.006;5.924;2023-07-29T09:59:41;8.27;;;7.53;;
73841;SDS011;62184;52.006;5.924;2023-07-29T10:02:09;8.10;;;7.30;;
73841;SDS011;62184;52.006;5.924;2023-07-29T10:04:41;8.07;;;7.38;;
73841;SDS011;62184;52.006;5.924;2023-07-29T10:07:11;7.95;;;7.25;;
73841;SDS011;62184;52.006;5.924;2023-07-29T10:09:38;8.05;;;7.30;;
73841;SDS011;62184;52.006;5.924;2023-07-29T10:12:06;7.93;;;7.23;;
73841;SDS011;62184;52.006;5.924;2023-07-29T10:14:35;8.90;;;8.10;;
73841;SDS011;62184;52.006;5.924;2023-07-29T10:17:04;8.80;;;7.90;;
73841;SDS011;62184;52.006;5.924;2023-07-29T10:19:31;8.23;;;7.53;;
73841;SDS011;62184;52.006;5.924;2023-07-29T10:22:00;9.10;;;8.30;;
73841;SDS011;62184;52.006;5.924;2023-07-29T10:24:32;8.50;;;7.80;;
73841;SDS011;62184;52.006;5.924;2023-07-29T10:27:00;8.07;;;7.32;;
73841;SDS011;62184;52.006;5.924;2023-07-29T10:29:28;7.87;;;7.17;;
73841;SDS011;62184;52.006;5.924;2023-07-29T10:31:57;7.85;;;7.15;;
73841;SDS011;62184;52.006;5.924;2023-07-29T10:34:29;8.00;;;7.30;;
73841;SDS011;62184;52.006;5.924;2023-07-29T10:36:56;8.25;;;7.55;;
73841;SDS011;62184;52.006;5.924;2023-07-29T10:39:24;8.35;;;7.65;;
73841;SDS011;62184;52.006;5.924;2023-07-29T10:41:59;7.80;;;7.10;;
73841;SDS011;62184;52.006;5.924;2023-07-29T10:47:12;7.90;;;7.18;;
73841;SDS011;62184;52.006;5.924;2023-07-29T10:49:39;8.27;;;7.47;;
73841;SDS011;62184;52.006;5.924;2023-07-29T10:52:06;8.10;;;7.20;;
73841;SDS011;62184;52.006;5.924;2023-07-29T10:54:37;8.70;;;7.90;;
73841;SDS011;62184;52.006;5.924;2023-07-29T10:57:15;8.30;;;7.60;;
73841;SDS011;62184;52.006;5.924;2023-07-29T10:59:55;9.15;;;8.35;;
73841;SDS011;62184;52.006;5.924;2023-07-29T11:02:28;9.63;;;8.73;;
73841;SDS011;62184;52.006;5.924;2023-07-29T11:04:56;9.73;;;8.73;;
73841;SDS011;62184;52.006;5.924;2023-07-29T11:07:24;8.95;;;8.15;;
73841;SDS011;62184;52.006;5.924;2023-07-29T11:09:53;9.30;;;8.50;;
73841;SDS011;62184;52.006;5.924;2023-07-29T11:12:44;9.20;;;8.40;;
73841;SDS011;62184;52.006;5.924;2023-07-29T11:15:13;8.95;;;8.15;;
73841;SDS011;62184;52.006;5.924;2023-07-29T11:17:46;8.60;;;7.90;;
73841;SDS011;62184;52.006;5.924;2023-07-29T11:20:15;8.65;;;7.95;;
73841;SDS011;62184;52.006;5.924;2023-07-29T11:22:43;9.05;;;8.25;;
73841;SDS011;62184;52.006;5.924;2023-07-29T11:25:10;8.57;;;7.78;;
73841;SDS011;62184;52.006;5.924;2023-07-29T11:27:38;8.70;;;8.00;;
73841;SDS011;62184;52.006;5.924;2023-07-29T11:30:08;8.27;;;7.57;;
73841;SDS011;62184;52.006;5.924;2023-07-29T11:32:37;8.40;;;7.70;;
73841;SDS011;62184;52.006;5.924;2023-07-29T11:35:06;9.37;;;8.47;;
73841;SDS011;62184;52.006;5.924;2023-07-29T11:37:35;9.63;;;8.73;;
73841;SDS011;62184;52.006;5.924;2023-07-29T11:40:04;9.40;;;8.60;;
73841;SDS011;62184;52.006;5.924;2023-07-29T11:42:32;8.98;;;8.18;;
73841;SDS011;62184;52.006;5.924;2023-07-29T11:45:00;8.70;;;7.80;;
73841;SDS011;62184;52.006;5.924;2023-07-29T11:47:29;9.48;;;8.68;;
73841;SDS011;62184;52.006;5.924;2023-07-29T11:49:58;8.85;;;8.15;;
73841;SDS011;62184;52.006;5.924;2023-07-29T11:52:25;8.65;;;7.90;;
73841;SDS011;62184;52.006;5.924;2023-07-29T11:54:52;9.07;;;7.95;;
73841;SDS011;62184;52.006;5.924;2023-07-29T11:57:19;9.20;;;8.32;;
73841;SDS011;62184;52.006;5.924;2023-07-29T11:59:46;9.50;;;8.50;;
73841;SDS011;62184;52.006;5.924;2023-07-29T12:02:13;9.60;;;8.87;;
73841;SDS011;62184;52.006;5.924;2023-07-29T12:04:47;9.68;;;8.77;;
73841;SDS011;62184;52.006;5.924;2023-07-29T12:07:16;9.77;;;8.90;;
73841;SDS011;62184;52.006;5.924;2023-07-29T12:09:44;9.80;;;9.00;;
73841;SDS011;62184;52.006;5.924;2023-07-29T12:12:12;9.25;;;8.45;;
73841;SDS011;62184;52.006;5.924;2023-07-29T12:14:43;9.32;;;8.50;;
73841;SDS011;62184;52.006;5.924;2023-07-29T12:17:11;9.20;;;8.40;;
73841;SDS011;62184;52.006;5.924;2023-07-29T12:19:38;9.87;;;8.97;;
73841;SDS011;62184;52.006;5.924;2023-07-29T12:22:09;9.40;;;8.60;;
73841;SDS011;62184;52.006;5.924;2023-07-29T12:24:37;9.43;;;8.63;;
73841;SDS011;62184;52.006;5.924;2023-07-29T12:27:05;9.65;;;8.85;;
73841;SDS011;62184;52.006;5.924;2023-07-29T12:29:39;8.82;;;8.13;;
73841;SDS011;62184;52.006;5.924;2023-07-29T12:32:07;8.95;;;8.15;;
73841;SDS011;62184;52.006;5.924;2023-07-29T12:34:35;8.70;;;7.90;;
73841;SDS011;62184;52.006;5.924;2023-07-29T12:37:03;8.40;;;7.60;;
73841;SDS011;62184;52.006;5.924;2023-07-29T12:39:35;8.85;;;8.05;;
73841;SDS011;62184;52.006;5.924;2023-07-29T12:42:06;8.70;;;7.90;;
73841;SDS011;62184;52.006;5.924;2023-07-29T12:44:34;8.68;;;7.88;;
73841;SDS011;62184;52.006;5.924;2023-07-29T12:47:03;8.48;;;7.78;;
73841;SDS011;62184;52.006;5.924;2023-07-29T12:49:32;8.48;;;7.68;;
73841;SDS011;62184;52.006;5.924;2023-07-29T12:51:59;8.23;;;7.45;;
73841;SDS011;62184;52.006;5.924;2023-07-29T12:54:26;8.10;;;7.30;;
73841;SDS011;62184;52.006;5.924;2023-07-29T12:56:55;7.70;;;7.00;;
73841;SDS011;62184;52.006;5.924;2023-07-29T12:59:21;7.63;;;6.93;;
73841;SDS011;62184;52.006;5.924;2023-07-29T13:01:48;7.50;;;6.90;;
73841;SDS011;62184;52.006;5.924;2023-07-29T13:04:14;7.60;;;7.00;;
73841;SDS011;62184;52.006;5.924;2023-07-29T13:06:41;7.60;;;6.80;;
73841;SDS011;62184;52.006;5.924;2023-07-29T13:09:07;7.88;;;7.18;;
73841;SDS011;62184;52.006;5.924;2023-07-29T13:11:33;8.30;;;7.50;;
73841;SDS011;62184;52.006;5.924;2023-07-29T13:14:03;8.10;;;7.50;;
73841;SDS011;62184;52.006;5.924;2023-07-29T13:16:29;8.75;;;8.05;;
73841;SDS011;62184;52.006;5.924;2023-07-29T13:18:56;8.83;;;8.13;;
73841;SDS011;62184;52.006;5.924;2023-07-29T13:21:23;8.07;;;7.38;;
73841;SDS011;62184;52.006;5.924;2023-07-29T13:23:50;8.00;;;7.40;;
73841;SDS011;62184;52.006;5.924;2023-07-29T13:26:17;8.32;;;7.63;;
73841;SDS011;62184;52.006;5.924;2023-07-29T13:28:43;9.10;;;8.30;;
73841;SDS011;62184;52.006;5.924;2023-07-29T13:31:13;9.05;;;8.25;;
73841;SDS011;62184;52.006;5.924;2023-07-29T13:33:39;9.07;;;8.37;;
73841;SDS011;62184;52.006;5.924;2023-07-29T13:36:05;9.82;;;8.98;;
73841;SDS011;62184;52.006;5.924;2023-07-29T13:38:32;9.50;;;8.70;;
73841;SDS011;62184;52.006;5.924;2023-07-29T13:40:58;10.13;;;9.23;;
73841;SDS011;62184;52.006;5.924;2023-07-29T13:43:25;10.00;;;9.20;;
73841;SDS011;62184;52.006;5.924;2023-07-29T13:45:51;9.50;;;8.70;;
73841;SDS011;62184;52.006;5.924;2023-07-29T13:48:20;9.20;;;8.40;;
73841;SDS011;62184;52.006;5.924;2023-07-29T13:50:47;9.68;;;8.85;;
73841;SDS011;62184;52.006;5.924;2023-07-29T13:53:13;10.30;;;9.40;;
73841;SDS011;62184;52.006;5.924;2023-07-29T13:55:40;10.20;;;9.30;;
73841;SDS011;62184;52.006;5.924;2023-07-29T13:58:06;10.48;;;9.57;;
73841;SDS011;62184;52.006;5.924;2023-07-29T14:00:32;10.70;;;9.80;;
73841;SDS011;62184;52.006;5.924;2023-07-29T14:02:59;10.20;;;9.30;;
73841;SDS011;62184;52.006;5.924;2023-07-29T14:05:28;9.10;;;8.30;;
73841;SDS011;62184;52.006;5.924;2023-07-29T14:07:54;9.32;;;8.60;;
73841;SDS011;62184;52.006;5.924;2023-07-29T14:10:21;9.00;;;8.25;;
73841;SDS011;62184;52.006;5.924;2023-07-29T14:12:47;8.80;;;8.00;;
73841;SDS011;62184;52.006;5.924;2023-07-29T14:15:14;9.30;;;8.57;;
73841;SDS011;62184;52.006;5.924;2023-07-29T14:17:40;9.05;;;8.35;;
73841;SDS011;62184;52.006;5.924;2023-07-29T14:20:07;8.93;;;8.23;;
73841;SDS011;62184;52.006;5.924;2023-07-29T14:22:38;9.13;;;8.35;;
73841;SDS011;62184;52.006;5.924;2023-07-29T14:25:05;8.80;;;8.10;;
73841;SDS011;62184;52.006;5.924;2023-07-29T14:27:33;9.10;;;8.30;;
73841;SDS011;62184;52.006;5.924;2023-07-29T14:29:59;9.20;;;8.40;;
73841;SDS011;62184;52.006;5.924;2023-07-29T14:32:26;9.45;;;8.70;;
73841;SDS011;62184;52.006;5.924;2023-07-29T14:34:52;9.13;;;8.32;;
73841;SDS011;62184;52.006;5.924;2023-07-29T14:37:19;9.47;;;8.67;;
73841;SDS011;62184;52.006;5.924;2023-07-29T14:39:48;9.30;;;8.52;;